createdAt,value
2019-02-05T00:09:43.094Z,-0.20
2019-02-05T00:19:45.564Z,-0.20
2019-02-05T00:29:47.091Z,-0.40
2019-02-05T00:39:48.516Z,-0.80
2019-02-05T00:49:49.920Z,-1.00
2019-02-05T00:59:51.560Z,-1.30
2019-02-05T01:09:52.968Z,-1.60
2019-02-05T01:19:55.416Z,-1.80
2019-02-05T01:29:56.852Z,-2.00
2019-02-05T01:39:58.460Z,-2.40
2019-02-05T01:49:59.876Z,-2.70
2019-02-05T02:00:01.773Z,-2.90
2019-02-05T02:10:07.232Z,-3.20
2019-02-05T02:20:17.969Z,-3.50
2019-02-05T02:30:32.033Z,-3.80
2019-02-05T02:40:33.544Z,-3.90
2019-02-05T02:50:35.108Z,-4.00
2019-02-05T03:00:36.604Z,-4.00
2019-02-05T03:10:38.173Z,-4.20
2019-02-05T03:20:41.370Z,-4.30
2019-02-05T03:30:42.886Z,-4.40
2019-02-05T03:40:56.567Z,-4.50
2019-02-05T03:51:07.748Z,-4.60
2019-02-05T04:01:18.920Z,-4.60
2019-02-05T04:11:33.204Z,-4.50
2019-02-05T04:21:48.682Z,-4.30
2019-02-05T04:31:54.002Z,-4.10
2019-02-05T04:42:11.381Z,-4.00
2019-02-05T04:52:26.999Z,-3.80
2019-02-05T05:02:35.180Z,-3.60
2019-02-05T05:12:36.594Z,-3.50
2019-02-05T05:22:39.262Z,-3.30
2019-02-05T05:32:40.995Z,-3.20
2019-02-05T05:42:42.401Z,-3.10
2019-02-05T05:52:43.816Z,-3.10
2019-02-05T06:02:45.545Z,-3.00
2019-02-05T06:12:47.055Z,-3.50
2019-02-05T06:22:49.601Z,-4.00
2019-02-05T06:32:51.197Z,-4.20
2019-02-05T06:42:52.696Z,-4.40
2019-02-05T06:52:54.153Z,-4.70
2019-02-05T07:02:55.623Z,-4.30
2019-02-05T07:12:57.113Z,-2.80
2019-02-05T07:22:59.545Z,-1.00
2019-02-05T07:33:01.089Z,1.80
2019-02-05T07:43:02.601Z,4.80
2019-02-05T07:53:04.174Z,7.50
2019-02-05T08:03:05.886Z,8.70
2019-02-05T08:13:07.544Z,9.80
2019-02-05T08:23:09.932Z,12.00
2019-02-05T08:33:11.544Z,12.50
2019-02-05T08:43:12.964Z,8.10
2019-02-05T08:53:14.422Z,11.20
2019-02-05T09:03:15.857Z,13.30
2019-02-05T09:13:17.312Z,15.40
2019-02-05T09:23:20.603Z,17.20
2019-02-05T09:33:22.236Z,16.70
2019-02-05T09:43:23.660Z,14.20
2019-02-05T09:53:25.040Z,14.20
2019-02-05T10:03:26.558Z,15.30
2019-02-05T10:13:28.017Z,14.80
2019-02-05T10:23:32.040Z,14.60
2019-02-05T10:33:33.576Z,14.10
2019-02-05T10:43:35.198Z,15.80
2019-02-05T10:53:36.873Z,16.30
2019-02-05T11:03:38.319Z,13.10
2019-02-05T11:13:39.712Z,11.50
2019-02-05T11:23:42.153Z,9.90
2019-02-05T11:33:43.670Z,9.10
2019-02-05T11:43:45.076Z,7.70
2019-02-05T11:53:46.497Z,8.30
2019-02-05T12:03:47.924Z,8.20
2019-02-05T12:13:49.397Z,7.50
2019-02-05T12:23:51.840Z,7.40
2019-02-05T12:33:53.346Z,6.70
2019-02-05T12:43:54.761Z,6.00
2019-02-05T12:53:56.249Z,6.00
2019-02-05T13:03:57.745Z,6.00
2019-02-05T13:13:59.408Z,5.60
2019-02-05T13:24:01.838Z,4.80
2019-02-05T13:34:04.156Z,5.60
2019-02-05T13:44:05.678Z,4.70
2019-02-05T13:54:07.160Z,5.10
2019-02-05T14:04:08.588Z,4.30
2019-02-05T14:14:11.256Z,3.90
2019-02-05T14:24:12.792Z,3.70
2019-02-05T14:34:14.328Z,3.50
2019-02-05T14:44:15.831Z,3.00
2019-02-05T14:54:17.132Z,3.00
2019-02-05T15:04:18.561Z,2.90
2019-02-05T15:14:19.976Z,2.70
2019-02-05T15:24:22.493Z,2.60
2019-02-05T15:34:24.134Z,2.20
2019-02-05T15:44:25.540Z,1.70
2019-02-05T15:54:26.962Z,1.10
2019-02-05T16:04:28.399Z,0.80
2019-02-05T16:14:29.828Z,0.60
2019-02-05T16:24:32.389Z,0.40
2019-02-05T16:34:33.924Z,0.30
2019-02-05T16:44:35.544Z,0.00
2019-02-05T16:54:37.000Z,-0.10
2019-02-05T17:04:38.532Z,-0.30
2019-02-05T17:14:39.916Z,-0.50
2019-02-05T17:24:42.372Z,-0.80
2019-02-05T17:34:43.880Z,-0.90
2019-02-05T17:44:45.308Z,-1.00
2019-02-05T17:54:47.193Z,-1.10
2019-02-05T18:04:48.653Z,-1.10
2019-02-05T18:14:50.086Z,-1.30
2019-02-05T18:24:52.437Z,-1.40
2019-02-05T18:34:53.972Z,-1.60
2019-02-05T18:44:55.394Z,-1.70
2019-02-05T18:54:56.763Z,-1.70
2019-02-05T19:04:58.209Z,-1.90
2019-02-05T19:14:59.596Z,-2.10
2019-02-05T19:25:05.812Z,-2.40
2019-02-05T19:35:07.456Z,-2.50
2019-02-05T19:45:29.274Z,-2.50
2019-02-05T19:55:31.114Z,-2.60
2019-02-05T20:05:32.554Z,-2.60
2019-02-05T20:15:33.974Z,-2.70
2019-02-05T20:25:37.207Z,-2.60
2019-02-05T20:35:38.841Z,-2.50
2019-02-05T20:45:40.281Z,-2.50
2019-02-05T20:55:41.757Z,-2.40
2019-02-05T21:05:43.283Z,-2.40
2019-02-05T21:15:44.840Z,-2.40
2019-02-05T21:25:47.196Z,-2.20
2019-02-05T21:35:48.753Z,-2.00
2019-02-05T21:45:50.180Z,-1.80
2019-02-05T21:55:52.149Z,-1.50
2019-02-05T22:05:53.593Z,-1.30
2019-02-05T22:15:55.018Z,-1.20
2019-02-05T22:25:57.369Z,-1.30
2019-02-05T22:35:58.901Z,-1.20
2019-02-05T22:46:00.408Z,-1.10
2019-02-05T22:56:02.324Z,-1.10
2019-02-05T23:06:13.824Z,-0.90
2019-02-05T23:16:15.233Z,-0.90
2019-02-05T23:26:17.627Z,-0.90
2019-02-05T23:36:19.108Z,-0.90
2019-02-05T23:46:20.515Z,-0.80
2019-02-05T23:56:26.178Z,-0.80
